CheckWX is a tool to help pilots better visualize weather data.  It is not intended as a substitute for an official pre-flight weather briefing.

09:31:10 UTC

KHNB TAF
Huntingburg Airport
Huntingburg, Indiana, USA
KHNB 200732Z 2008/2106 09012G17KT 3SM -RASN BR SCT008 OVC014 TEMPO 2008/2010 2SM -TSRASN BR BKN008CB FM201000 11012G17KT 3SM -RA BR SCT006 BKN012 TEMPO 2010/2014 2SM -RA BR BKN006 FM201400 14012G17KT 4SM -RA BR BKN006 OVC012 FM201800 18013G19KT 4SM -RA BR BKN005 OVC012 FM210000 24013G18KT P6SM BKN015

Feb-20@
08:00 UTC

Feb-20 @ 08:00 UTC

Feb-20@
10:00 UTC

Feb-20 @ 10:00 UTC

KHNB 200732Z 2008/2106 09012G17KT 3SM -RASN BR SCT008 OVC014
Wind
  • 090° at 12 KTS
  • {Gusting to 17 KTS
Visibility
4,828 meters
Conditions
Light Rain, Light Snow, Mist
Cloud Levels
  • Scattered at 800' AGL
  • Overcast at 1,400' AGL

Feb-20@
08:00 UTC

Feb-20 @ 08:00 UTC

Feb-20@
10:00 UTC

Feb-20 @ 10:00 UTC

TEMPO 2008/2010 2SM -TSRASN BR BKN008CB

Temporary

TemporaryChanges expected for less than half the time period

Visibility
3,219 meters
Conditions
Light Thunderstorm, Light Rain, Light Thunderstorm, Light Snow, Mist
Cloud Levels
  • Broken at 800' AGL

Feb-20@
10:00 UTC

Feb-20 @ 10:00 UTC

Feb-20@
14:00 UTC

Feb-20 @ 14:00 UTC

FM201000 11012G17KT 3SM -RA BR SCT006 BKN012

From

FromStandard forecast or significant change

Wind
  • 110° at 12 KTS
  • {Gusting to 17 KTS
Visibility
4,828 meters
Conditions
Light Rain, Mist
Cloud Levels
  • Scattered at 600' AGL
  • Broken at 1,200' AGL

Feb-20@
10:00 UTC

Feb-20 @ 10:00 UTC

Feb-20@
14:00 UTC

Feb-20 @ 14:00 UTC

TEMPO 2010/2014 2SM -RA BR BKN006

Temporary

TemporaryChanges expected for less than half the time period

Visibility
3,219 meters
Conditions
Light Rain, Mist
Cloud Levels
  • Broken at 600' AGL

Feb-20@
14:00 UTC

Feb-20 @ 14:00 UTC

Feb-20@
18:00 UTC

Feb-20 @ 18:00 UTC

FM201400 14012G17KT 4SM -RA BR BKN006 OVC012

From

FromStandard forecast or significant change

Wind
  • 140° at 12 KTS
  • {Gusting to 17 KTS
Visibility
6,437 meters
Conditions
Light Rain, Mist
Cloud Levels
  • Broken at 600' AGL
  • Overcast at 1,200' AGL

Feb-20@
18:00 UTC

Feb-20 @ 18:00 UTC

Feb-21@
00:00 UTC

Feb-21 @ 00:00 UTC

FM201800 18013G19KT 4SM -RA BR BKN005 OVC012

From

FromStandard forecast or significant change

Wind
  • 180° at 13 KTS
  • {Gusting to 19 KTS
Visibility
6,437 meters
Conditions
Light Rain, Mist
Cloud Levels
  • Broken at 500' AGL
  • Overcast at 1,200' AGL

Feb-21@
00:00 UTC

Feb-21 @ 00:00 UTC

Feb-21@
06:00 UTC

Feb-21 @ 06:00 UTC

FM210000 24013G18KT P6SM BKN015

From

FromStandard forecast or significant change

Wind
  • 240° at 13 KTS
  • {Gusting to 18 KTS
Visibility
10,000+ meters
Cloud Levels
  • Broken at 1,500' AGL